createdAt,value
2018-06-21T00:00:09.895Z,5.50
2018-06-21T00:03:13.013Z,5.40
2018-06-21T00:06:16.117Z,5.20
2018-06-21T00:09:19.185Z,5.07
2018-06-21T00:12:22.265Z,5.47
2018-06-21T00:15:25.382Z,5.63
2018-06-21T00:18:28.525Z,5.57
2018-06-21T00:21:31.546Z,5.40
2018-06-21T00:24:34.622Z,9.40
2018-06-21T00:27:37.705Z,5.87
2018-06-21T00:30:40.581Z,5.17
2018-06-21T00:33:43.465Z,5.40
2018-06-21T00:36:46.329Z,5.40
2018-06-21T00:39:49.513Z,5.60
2018-06-21T00:42:52.597Z,5.77
2018-06-21T00:45:55.682Z,5.60
2018-06-21T00:48:58.784Z,4.77
2018-06-21T00:52:01.894Z,5.43
2018-06-21T00:55:05.805Z,4.80
2018-06-21T00:58:08.930Z,5.20
2018-06-21T01:01:12.277Z,5.10
2018-06-21T01:04:15.393Z,5.23
2018-06-21T01:07:18.461Z,5.00
2018-06-21T01:10:21.545Z,5.07
2018-06-21T01:13:24.621Z,5.27
2018-06-21T01:16:27.693Z,5.60
2018-06-21T01:19:30.762Z,5.40
2018-06-21T01:22:33.622Z,5.53
2018-06-21T01:25:36.716Z,5.10
2018-06-21T01:28:39.828Z,5.23
2018-06-21T01:31:42.698Z,4.87
2018-06-21T01:34:45.792Z,5.40
2018-06-21T01:37:48.854Z,5.50
2018-06-21T01:40:51.915Z,4.97
2018-06-21T01:43:55.005Z,5.60
2018-06-21T01:46:58.081Z,5.57
2018-06-21T01:50:01.174Z,7.50
2018-06-21T01:53:04.316Z,6.70
2018-06-21T01:56:07.382Z,5.67
2018-06-21T01:59:10.577Z,5.77
2018-06-21T02:02:13.657Z,5.77
2018-06-21T02:05:16.768Z,5.47
2018-06-21T02:08:19.845Z,7.20
2018-06-21T02:11:22.917Z,5.80
2018-06-21T02:14:26.013Z,9.10
2018-06-21T02:17:29.113Z,13.80
2018-06-21T02:20:32.221Z,9.70
2018-06-21T02:23:35.313Z,7.40
2018-06-21T02:26:38.402Z,5.40
2018-06-21T02:29:41.482Z,5.43
2018-06-21T02:32:44.572Z,5.20
2018-06-21T02:35:47.675Z,8.13
2018-06-21T02:38:50.759Z,5.37
2018-06-21T02:41:53.813Z,5.70
2018-06-21T02:44:56.693Z,6.13
2018-06-21T02:47:59.757Z,6.13
2018-06-21T02:51:02.845Z,5.90
2018-06-21T02:54:06.039Z,5.40
2018-06-21T02:57:09.129Z,6.13
2018-06-21T03:00:12.212Z,6.63
2018-06-21T03:03:15.274Z,6.90
2018-06-21T03:06:18.357Z,5.97
2018-06-21T03:09:21.233Z,6.17
2018-06-21T03:12:24.709Z,8.60
2018-06-21T03:15:27.801Z,9.00
2018-06-21T03:18:30.876Z,5.30
2018-06-21T03:21:33.973Z,7.77
2018-06-21T03:24:37.073Z,5.70
2018-06-21T03:27:40.158Z,5.70
2018-06-21T03:30:43.249Z,5.30
2018-06-21T03:33:46.357Z,5.77
2018-06-21T03:36:49.469Z,6.03
2018-06-21T03:39:52.377Z,5.13
2018-06-21T03:42:55.458Z,5.27
2018-06-21T03:45:58.551Z,5.60
2018-06-21T03:49:01.650Z,5.80
2018-06-21T03:52:05.046Z,7.00
2018-06-21T03:55:08.138Z,6.80
2018-06-21T03:58:11.209Z,6.13
2018-06-21T04:01:14.110Z,6.53
2018-06-21T04:04:17.214Z,6.60
2018-06-21T04:07:20.271Z,5.90
2018-06-21T04:10:23.170Z,6.77
2018-06-21T04:13:26.254Z,6.07
2018-06-21T04:16:29.129Z,6.57
2018-06-21T04:19:32.213Z,6.07
2018-06-21T04:22:35.281Z,6.20
2018-06-21T04:25:38.361Z,6.37
2018-06-21T04:28:42.321Z,6.23
2018-06-21T04:31:45.204Z,5.70
2018-06-21T04:34:48.332Z,5.77
2018-06-21T04:37:51.423Z,5.20
2018-06-21T04:40:54.521Z,5.60
2018-06-21T04:43:57.603Z,5.13
2018-06-21T04:47:00.749Z,9.07
2018-06-21T04:50:03.845Z,6.30
2018-06-21T04:53:06.949Z,6.00
2018-06-21T04:56:10.065Z,6.30
2018-06-21T04:59:13.158Z,6.00
2018-06-21T05:02:16.278Z,5.23
2018-06-21T05:05:19.358Z,5.80
2018-06-21T05:08:22.454Z,6.27
2018-06-21T05:11:25.581Z,6.13
2018-06-21T05:14:28.694Z,6.10
2018-06-21T05:17:31.781Z,5.80
2018-06-21T05:20:34.652Z,5.50
2018-06-21T05:23:37.725Z,5.70
2018-06-21T05:26:40.839Z,5.73
2018-06-21T05:29:43.903Z,5.50
2018-06-21T05:32:47.016Z,5.80
2018-06-21T05:35:50.104Z,6.03
2018-06-21T05:38:53.184Z,6.60
2018-06-21T05:41:56.313Z,6.13
2018-06-21T05:44:59.195Z,6.40
2018-06-21T05:48:03.321Z,6.90
2018-06-21T05:51:06.225Z,6.47
2018-06-21T05:54:09.306Z,6.17
2018-06-21T05:57:12.506Z,6.40
2018-06-21T06:00:15.638Z,6.03
2018-06-21T06:03:18.702Z,6.37
2018-06-21T06:06:21.814Z,5.60
2018-06-21T06:09:31.339Z,6.03
2018-06-21T06:12:35.124Z,5.93
2018-06-21T06:15:38.831Z,5.67
2018-06-21T06:18:41.937Z,6.13
2018-06-21T06:21:45.028Z,5.23
2018-06-21T06:24:48.117Z,6.07
2018-06-21T06:27:51.209Z,7.60
2018-06-21T06:30:54.277Z,7.37
2018-06-21T06:33:57.144Z,6.53
2018-06-21T06:37:00.212Z,6.37
2018-06-21T06:40:03.338Z,6.67
2018-06-21T06:43:06.405Z,6.53
2018-06-21T06:46:09.519Z,6.30
2018-06-21T06:49:12.941Z,6.60
2018-06-21T06:52:16.055Z,7.70
2018-06-21T06:55:19.133Z,6.70
2018-06-21T06:58:22.243Z,6.67
2018-06-21T07:01:25.318Z,6.40
2018-06-21T07:04:28.414Z,6.80
2018-06-21T07:07:31.861Z,6.17
2018-06-21T07:10:34.918Z,7.10
2018-06-21T07:13:38.009Z,6.90
2018-06-21T07:16:41.093Z,6.33
2018-06-21T07:19:44.188Z,6.50
2018-06-21T07:22:47.312Z,6.13
2018-06-21T07:25:50.820Z,6.07
2018-06-21T07:28:53.898Z,6.10
2018-06-21T07:35:40.001Z,5.10
2018-06-21T07:38:43.105Z,5.20
2018-06-21T07:41:46.182Z,5.47
2018-06-21T07:44:49.250Z,5.90
2018-06-21T07:47:52.345Z,5.37
2018-06-21T07:50:55.485Z,6.03
2018-06-21T07:53:58.561Z,4.97
2018-06-21T07:57:01.659Z,5.40
2018-06-21T08:00:04.765Z,5.43
2018-06-21T08:03:07.854Z,5.07
2018-06-21T08:06:10.936Z,5.87
2018-06-21T08:09:14.238Z,5.87
2018-06-21T08:12:17.330Z,6.37
2018-06-21T08:15:20.396Z,5.20
2018-06-21T08:18:23.474Z,5.30
2018-06-21T08:21:26.565Z,5.20
2018-06-21T08:24:29.633Z,5.37
2018-06-21T08:27:32.705Z,4.93
2018-06-21T08:30:35.626Z,4.33
2018-06-21T08:33:38.707Z,3.47
2018-06-21T08:36:41.794Z,3.60
2018-06-21T08:39:50.804Z,3.93
2018-06-21T08:42:54.277Z,3.73
2018-06-21T08:45:57.389Z,3.40
2018-06-21T08:49:00.449Z,2.97
2018-06-21T08:52:03.562Z,3.40
2018-06-21T08:55:06.618Z,3.43
2018-06-21T08:58:09.697Z,3.20
2018-06-21T09:01:12.766Z,4.17
2018-06-21T09:04:15.628Z,6.03
2018-06-21T09:07:18.701Z,7.10
2018-06-21T09:10:21.801Z,7.70
2018-06-21T09:13:30.877Z,7.30
2018-06-21T09:16:33.974Z,6.63
2018-06-21T09:19:37.101Z,6.50
2018-06-21T09:22:40.181Z,6.33
2018-06-21T09:25:43.270Z,6.40
2018-06-21T09:28:46.361Z,5.73
2018-06-21T09:31:49.457Z,5.67
2018-06-21T09:34:52.889Z,5.73
2018-06-21T09:38:03.565Z,3.40
2018-06-21T09:41:12.590Z,2.47
2018-06-21T09:44:21.450Z,2.20
2018-06-21T09:47:32.029Z,2.57
2018-06-21T09:50:35.115Z,2.47
2018-06-21T09:53:38.185Z,2.90
2018-06-21T09:56:41.265Z,2.90
2018-06-21T09:59:44.342Z,3.07
2018-06-21T10:02:47.408Z,3.20
2018-06-21T10:05:50.512Z,3.80
2018-06-21T10:08:53.610Z,3.50
2018-06-21T10:11:56.690Z,4.33
2018-06-21T10:14:59.798Z,4.57
2018-06-21T10:18:02.877Z,4.43
2018-06-21T10:21:05.975Z,5.00
2018-06-21T10:24:09.064Z,4.47
2018-06-21T10:27:12.157Z,5.07
2018-06-21T10:30:15.238Z,5.13
2018-06-21T10:33:18.338Z,5.73
2018-06-21T10:36:21.393Z,6.00
2018-06-21T10:39:24.520Z,5.67
2018-06-21T10:42:27.596Z,6.13
2018-06-21T10:45:30.673Z,5.80
2018-06-21T10:48:33.752Z,5.83
2018-06-21T10:51:37.197Z,5.73
2018-06-21T10:54:40.393Z,5.27
2018-06-21T10:57:43.457Z,5.80
2018-06-21T11:00:46.533Z,5.83
2018-06-21T11:03:49.603Z,5.20
2018-06-21T11:06:52.541Z,5.20
2018-06-21T11:09:55.652Z,5.00
2018-06-21T11:12:58.713Z,5.50
2018-06-21T11:16:01.795Z,5.07
2018-06-21T11:19:04.993Z,4.60
2018-06-21T11:22:08.071Z,4.53
2018-06-21T11:25:11.149Z,4.53
2018-06-21T11:28:14.216Z,4.30
2018-06-21T11:31:17.293Z,4.80
2018-06-21T11:34:20.431Z,4.00
2018-06-21T11:37:23.489Z,4.67
2018-06-21T11:40:26.669Z,4.33
2018-06-21T11:43:29.730Z,3.80
2018-06-21T11:46:32.822Z,3.57
2018-06-21T11:49:35.913Z,3.40
2018-06-21T11:52:38.998Z,3.63
2018-06-21T11:55:42.117Z,2.60
2018-06-21T11:58:45.189Z,2.53
2018-06-21T12:01:48.307Z,2.47
2018-06-21T12:04:51.334Z,2.20
2018-06-21T12:07:54.409Z,2.50
2018-06-21T12:10:57.477Z,2.87
2018-06-21T12:14:00.567Z,2.70
2018-06-21T12:17:03.649Z,2.33
2018-06-21T12:20:06.740Z,2.60
2018-06-21T12:23:09.804Z,2.90
2018-06-21T12:26:12.981Z,3.90
2018-06-21T12:29:15.961Z,2.90
2018-06-21T12:32:19.113Z,2.80
2018-06-21T12:35:22.214Z,2.87
2018-06-21T12:38:25.274Z,2.73
2018-06-21T12:41:28.361Z,2.40
2018-06-21T12:44:31.431Z,2.20
2018-06-21T12:47:34.493Z,2.30
2018-06-21T12:50:37.445Z,2.47
2018-06-21T12:53:40.526Z,2.70
2018-06-21T12:56:43.618Z,2.47
2018-06-21T12:59:46.692Z,2.20
2018-06-21T13:02:49.888Z,2.27
2018-06-21T13:05:52.968Z,2.03
2018-06-21T13:09:07.543Z,1.87
2018-06-21T13:12:26.253Z,2.57
2018-06-21T13:15:29.349Z,2.03
2018-06-21T13:18:32.476Z,2.00
2018-06-21T13:21:35.590Z,1.80
2018-06-21T13:24:38.652Z,1.83
2018-06-21T13:27:41.747Z,1.90
2018-06-21T13:30:44.824Z,1.73
2018-06-21T13:33:48.166Z,1.90
2018-06-21T13:36:51.261Z,2.07
2018-06-21T13:39:54.334Z,1.93
2018-06-21T13:42:57.433Z,2.20
2018-06-21T13:46:00.509Z,2.10
2018-06-21T13:49:03.598Z,1.67
2018-06-21T13:52:06.685Z,1.80
2018-06-21T13:55:11.819Z,1.80
2018-06-21T13:58:14.925Z,1.80
2018-06-21T14:01:18.013Z,1.87
2018-06-21T14:04:21.299Z,1.47
2018-06-21T14:07:24.436Z,1.90
2018-06-21T14:10:27.235Z,1.73
2018-06-21T14:13:30.731Z,1.63
2018-06-21T14:16:33.846Z,1.20
2018-06-21T14:19:48.238Z,1.77
2018-06-21T14:22:51.341Z,1.33
2018-06-21T14:25:54.441Z,1.37
2018-06-21T14:28:57.527Z,1.50
2018-06-21T14:32:00.649Z,1.43
2018-06-21T14:35:03.725Z,1.57
2018-06-21T14:38:06.825Z,1.43
2018-06-21T14:41:09.894Z,1.20
2018-06-21T14:44:13.013Z,1.10
2018-06-21T14:47:16.094Z,1.53
2018-06-21T14:50:19.178Z,1.60
2018-06-21T14:53:22.282Z,1.17
2018-06-21T14:56:25.349Z,1.30
2018-06-21T14:59:28.453Z,1.53
2018-06-21T15:02:31.485Z,1.30
2018-06-21T15:05:34.349Z,1.40
2018-06-21T15:08:37.441Z,1.53
2018-06-21T15:11:40.538Z,1.70
2018-06-21T15:14:43.630Z,1.50
2018-06-21T15:17:46.721Z,1.37
2018-06-21T15:20:49.824Z,1.33
2018-06-21T15:23:52.751Z,2.03
2018-06-21T15:26:55.823Z,1.40
2018-06-21T15:29:58.909Z,1.67
2018-06-21T15:33:01.993Z,2.20
2018-06-21T15:36:05.105Z,1.40
2018-06-21T15:39:24.001Z,1.40
2018-06-21T15:42:27.080Z,1.53
2018-06-21T15:45:30.245Z,1.30
2018-06-21T15:48:33.249Z,1.40
2018-06-21T15:51:36.360Z,1.63
2018-06-21T15:54:39.422Z,1.40
2018-06-21T15:57:42.522Z,1.23
2018-06-21T16:00:45.625Z,1.03
2018-06-21T16:03:48.706Z,1.43
2018-06-21T16:06:51.810Z,1.33
2018-06-21T16:09:55.126Z,1.20
2018-06-21T16:12:58.223Z,1.63
2018-06-21T16:16:01.294Z,1.83
2018-06-21T16:19:04.385Z,1.40
2018-06-21T16:22:07.449Z,1.50
2018-06-21T16:25:10.547Z,1.20
2018-06-21T16:28:13.648Z,1.40
2018-06-21T16:31:16.735Z,1.63
2018-06-21T16:34:19.824Z,1.93
2018-06-21T16:37:22.923Z,1.50
2018-06-21T16:40:26.257Z,1.60
2018-06-21T16:43:29.330Z,1.70
2018-06-21T16:46:32.404Z,1.13
2018-06-21T16:49:35.475Z,1.27
2018-06-21T16:52:38.546Z,1.53
2018-06-21T16:55:41.621Z,1.50
2018-06-21T16:58:44.686Z,1.53
2018-06-21T17:01:47.768Z,1.20
2018-06-21T17:04:50.868Z,1.93
2018-06-21T17:07:53.929Z,1.57
2018-06-21T17:10:57.017Z,1.60
2018-06-21T17:14:00.100Z,1.70
2018-06-21T17:17:03.179Z,2.17
2018-06-21T17:20:06.060Z,1.93
2018-06-21T17:23:08.991Z,2.93
2018-06-21T17:26:12.214Z,1.90
2018-06-21T17:29:15.305Z,1.20
2018-06-21T17:32:18.397Z,2.20
2018-06-21T17:35:21.474Z,1.60
2018-06-21T17:38:24.568Z,1.93
2018-06-21T17:41:27.637Z,1.50
2018-06-21T17:44:30.717Z,1.40
2018-06-21T17:47:33.808Z,1.60
2018-06-21T17:50:36.921Z,1.77
2018-06-21T17:53:40.000Z,1.90
2018-06-21T17:56:43.061Z,2.00
2018-06-21T17:59:46.241Z,1.70
2018-06-21T18:02:49.093Z,1.70
2018-06-21T18:05:52.174Z,1.97
2018-06-21T18:08:55.239Z,1.73
2018-06-21T18:11:58.336Z,1.90
2018-06-21T18:15:01.440Z,2.00
2018-06-21T18:18:04.514Z,2.00
2018-06-21T18:21:07.745Z,2.00
2018-06-21T18:24:10.805Z,1.30
2018-06-21T18:27:13.981Z,1.40
2018-06-21T18:30:17.074Z,1.30
2018-06-21T18:33:25.957Z,1.63
2018-06-21T18:36:29.045Z,1.00
2018-06-21T18:39:32.130Z,1.00
2018-06-21T18:42:35.212Z,2.03
2018-06-21T18:45:38.289Z,1.07
2018-06-21T18:48:41.393Z,1.50
2018-06-21T18:51:44.477Z,1.27
2018-06-21T18:54:47.588Z,1.23
2018-06-21T18:57:50.654Z,1.20
2018-06-21T19:00:53.745Z,1.30
2018-06-21T19:03:57.290Z,1.23
2018-06-21T19:07:05.874Z,2.33
2018-06-21T19:10:14.549Z,1.70
2018-06-21T19:13:17.417Z,1.10
2018-06-21T19:16:20.494Z,1.40
2018-06-21T19:19:23.641Z,1.43
2018-06-21T19:22:26.785Z,2.20
2018-06-21T19:25:29.877Z,1.00
2018-06-21T19:28:32.933Z,4.80
2018-06-21T19:31:36.025Z,1.90
2018-06-21T19:34:39.105Z,1.57
2018-06-21T19:37:42.185Z,1.27
2018-06-21T19:40:45.250Z,1.90
2018-06-21T19:43:48.329Z,1.10
2018-06-21T19:46:51.429Z,1.80
2018-06-21T19:49:54.516Z,1.77
2018-06-21T19:52:57.579Z,1.40
2018-06-21T19:56:00.674Z,1.97
2018-06-21T19:59:03.741Z,1.10
2018-06-21T20:02:06.817Z,3.07
2018-06-21T20:05:10.694Z,1.10
2018-06-21T20:08:13.756Z,1.13
2018-06-21T20:11:22.427Z,1.13
2018-06-21T20:14:25.507Z,1.80
2018-06-21T20:17:28.380Z,1.30
2018-06-21T20:20:33.345Z,1.70
2018-06-21T20:23:36.661Z,1.30
2018-06-21T20:26:40.006Z,2.20
2018-06-21T20:29:43.077Z,1.53
2018-06-21T20:32:46.165Z,2.50
2018-06-21T20:35:49.229Z,1.33
2018-06-21T20:38:52.324Z,1.50
2018-06-21T20:41:55.397Z,1.33
2018-06-21T20:44:58.494Z,1.47
2018-06-21T20:48:01.558Z,1.90
2018-06-21T20:51:04.708Z,1.57
2018-06-21T20:54:07.771Z,1.27
2018-06-21T20:57:10.633Z,1.70
2018-06-21T21:00:13.705Z,1.53
2018-06-21T21:03:16.801Z,1.90
2018-06-21T21:06:19.877Z,1.20
2018-06-21T21:09:22.946Z,1.40
2018-06-21T21:12:26.186Z,1.80
2018-06-21T21:15:29.387Z,1.60
2018-06-21T21:18:32.266Z,1.50
2018-06-21T21:21:35.340Z,1.20
2018-06-21T21:24:38.423Z,2.27
2018-06-21T21:27:41.494Z,2.30
2018-06-21T21:30:44.593Z,1.80
2018-06-21T21:33:47.689Z,1.43
2018-06-21T21:36:50.785Z,1.87
2018-06-21T21:39:57.505Z,1.30
2018-06-21T21:43:00.396Z,1.60
2018-06-21T21:46:03.456Z,1.80
2018-06-21T21:49:06.541Z,1.57
2018-06-21T21:52:09.624Z,1.60
2018-06-21T21:55:12.689Z,1.80
2018-06-21T21:58:15.945Z,1.73
2018-06-21T22:01:18.953Z,1.60
2018-06-21T22:04:22.018Z,1.90
2018-06-21T22:07:25.129Z,1.70
2018-06-21T22:10:28.213Z,1.87
2018-06-21T22:13:31.100Z,1.70
2018-06-21T22:16:35.705Z,1.80
2018-06-21T22:19:38.813Z,1.70
2018-06-21T22:22:41.712Z,2.00
2018-06-21T22:25:44.786Z,1.90
2018-06-21T22:28:47.873Z,1.80
2018-06-21T22:31:53.322Z,1.57
2018-06-21T22:34:56.398Z,1.87
2018-06-21T22:37:59.521Z,1.93
2018-06-21T22:41:02.573Z,1.90
2018-06-21T22:44:05.814Z,1.97
2018-06-21T22:47:08.922Z,1.83
2018-06-21T22:50:11.740Z,2.07
2018-06-21T22:53:14.809Z,1.80
2018-06-21T22:56:17.889Z,2.27
2018-06-21T22:59:20.981Z,1.90
2018-06-21T23:02:24.074Z,2.20
2018-06-21T23:05:27.195Z,1.83
2018-06-21T23:08:30.036Z,2.10
2018-06-21T23:11:33.106Z,2.20
2018-06-21T23:14:36.441Z,2.03
2018-06-21T23:17:39.473Z,1.80
2018-06-21T23:20:42.525Z,1.70
2018-06-21T23:23:45.610Z,1.60
2018-06-21T23:26:48.721Z,1.93
2018-06-21T23:29:51.796Z,2.33
2018-06-21T23:32:54.911Z,1.80
2018-06-21T23:35:58.121Z,2.50
2018-06-21T23:39:01.205Z,2.07
2018-06-21T23:42:04.281Z,2.10
2018-06-21T23:45:07.365Z,2.00
2018-06-21T23:48:10.466Z,2.20
2018-06-21T23:51:13.530Z,2.30
2018-06-21T23:54:16.652Z,2.70
2018-06-21T23:57:19.886Z,2.30
